sensor_id;sensor_type;location;lat;lon;timestamp;P1;durP1;ratioP1;P2;durP2;ratioP2
71810;SDS011;59657;0.000;0.000;2022-10-19T00:02:55;5.28;;;4.78;;
71810;SDS011;59657;0.000;0.000;2022-10-19T00:07:47;5.25;;;4.72;;
71810;SDS011;59657;0.000;0.000;2022-10-19T00:12:41;4.95;;;4.55;;
71810;SDS011;59657;0.000;0.000;2022-10-19T00:17:34;4.40;;;3.97;;
71810;SDS011;59657;0.000;0.000;2022-10-19T00:22:26;5.55;;;5.03;;
71810;SDS011;59657;0.000;0.000;2022-10-19T00:27:19;4.00;;;3.70;;
71810;SDS011;59657;0.000;0.000;2022-10-19T00:32:12;4.63;;;4.22;;
71810;SDS011;59657;0.000;0.000;2022-10-19T00:34:38;4.97;;;4.57;;
71810;SDS011;59657;0.000;0.000;2022-10-19T00:39:31;6.10;;;5.25;;
71810;SDS011;59657;0.000;0.000;2022-10-19T00:47:10;5.03;;;4.63;;
71810;SDS011;59657;0.000;0.000;2022-10-19T00:52:05;5.50;;;4.90;;
71810;SDS011;59657;0.000;0.000;2022-10-19T00:54:32;5.90;;;5.18;;
71810;SDS011;59657;0.000;0.000;2022-10-19T00:56:59;5.28;;;4.78;;
71810;SDS011;59657;0.000;0.000;2022-10-19T01:01:52;6.10;;;5.50;;
71810;SDS011;59657;0.000;0.000;2022-10-19T01:04:19;5.90;;;5.40;;
71810;SDS011;59657;0.000;0.000;2022-10-19T01:06:47;6.93;;;5.63;;
71810;SDS011;59657;0.000;0.000;2022-10-19T01:11:42;6.32;;;5.72;;
71810;SDS011;59657;0.000;0.000;2022-10-19T01:19:43;6.70;;;6.10;;
71810;SDS011;59657;0.000;0.000;2022-10-19T01:22:42;6.05;;;5.50;;
71810;SDS011;59657;0.000;0.000;2022-10-19T01:25:09;5.97;;;5.47;;
71810;SDS011;59657;0.000;0.000;2022-10-19T01:27:47;6.95;;;6.32;;
71810;SDS011;59657;0.000;0.000;2022-10-19T01:30:37;6.63;;;6.00;;
71810;SDS011;59657;0.000;0.000;2022-10-19T01:35:45;6.43;;;5.70;;
71810;SDS011;59657;0.000;0.000;2022-10-19T01:43:29;5.68;;;5.18;;
71810;SDS011;59657;0.000;0.000;2022-10-19T01:46:04;6.38;;;5.47;;
71810;SDS011;59657;0.000;0.000;2022-10-19T01:48:33;5.85;;;5.30;;
71810;SDS011;59657;0.000;0.000;2022-10-19T01:51:02;6.47;;;5.85;;
71810;SDS011;59657;0.000;0.000;2022-10-19T01:53:32;6.45;;;5.85;;
71810;SDS011;59657;0.000;0.000;2022-10-19T01:55:59;6.28;;;5.68;;
71810;SDS011;59657;0.000;0.000;2022-10-19T01:58:27;6.55;;;5.97;;
71810;SDS011;59657;0.000;0.000;2022-10-19T02:00:55;5.20;;;4.72;;
71810;SDS011;59657;0.000;0.000;2022-10-19T02:03:23;6.82;;;5.95;;
71810;SDS011;59657;0.000;0.000;2022-10-19T02:05:50;5.05;;;4.65;;
71810;SDS011;59657;0.000;0.000;2022-10-19T02:08:21;5.65;;;5.13;;
71810;SDS011;59657;0.000;0.000;2022-10-19T02:10:50;6.55;;;5.57;;
71810;SDS011;59657;0.000;0.000;2022-10-19T02:13:16;5.68;;;5.18;;
71810;SDS011;59657;0.000;0.000;2022-10-19T02:15:45;6.35;;;5.55;;
71810;SDS011;59657;0.000;0.000;2022-10-19T02:18:13;5.70;;;5.20;;
71810;SDS011;59657;0.000;0.000;2022-10-19T02:20:41;6.40;;;5.80;;
71810;SDS011;59657;0.000;0.000;2022-10-19T02:25:33;6.18;;;5.57;;
71810;SDS011;59657;0.000;0.000;2022-10-19T02:28:02;4.63;;;4.15;;
71810;SDS011;59657;0.000;0.000;2022-10-19T02:30:29;5.45;;;4.82;;
71810;SDS011;59657;0.000;0.000;2022-10-19T02:32:56;4.53;;;4.22;;
71810;SDS011;59657;0.000;0.000;2022-10-19T02:35:23;3.47;;;3.22;;
71810;SDS011;59657;0.000;0.000;2022-10-19T02:37:49;6.10;;;5.50;;
71810;SDS011;59657;0.000;0.000;2022-10-19T02:40:16;5.75;;;5.25;;
71810;SDS011;59657;0.000;0.000;2022-10-19T02:42:47;6.40;;;5.75;;
71810;SDS011;59657;0.000;0.000;2022-10-19T02:45:22;4.05;;;3.70;;
71810;SDS011;59657;0.000;0.000;2022-10-19T02:47:53;5.22;;;4.70;;
71810;SDS011;59657;0.000;0.000;2022-10-19T02:50:20;4.93;;;4.50;;
71810;SDS011;59657;0.000;0.000;2022-10-19T02:52:47;4.55;;;4.22;;
71810;SDS011;59657;0.000;0.000;2022-10-19T02:57:40;4.75;;;4.22;;
71810;SDS011;59657;0.000;0.000;2022-10-19T03:02:33;4.22;;;3.92;;
71810;SDS011;59657;0.000;0.000;2022-10-19T03:04:59;5.55;;;5.15;;
71810;SDS011;59657;0.000;0.000;2022-10-19T03:09:52;4.75;;;3.88;;
71810;SDS011;59657;0.000;0.000;2022-10-19T03:12:19;5.55;;;5.10;;
71810;SDS011;59657;0.000;0.000;2022-10-19T03:17:11;4.63;;;4.22;;
71810;SDS011;59657;0.000;0.000;2022-10-19T03:19:38;4.53;;;4.13;;
71810;SDS011;59657;0.000;0.000;2022-10-19T03:22:04;4.82;;;4.43;;
71810;SDS011;59657;0.000;0.000;2022-10-19T03:24:31;4.53;;;4.18;;
71810;SDS011;59657;0.000;0.000;2022-10-19T03:26:58;4.20;;;3.90;;
71810;SDS011;59657;0.000;0.000;2022-10-19T03:31:50;6.50;;;5.43;;
71810;SDS011;59657;0.000;0.000;2022-10-19T03:36:43;5.50;;;5.00;;
71810;SDS011;59657;0.000;0.000;2022-10-19T03:41:36;5.20;;;4.70;;
71810;SDS011;59657;0.000;0.000;2022-10-19T03:44:03;4.13;;;3.83;;
71810;SDS011;59657;0.000;0.000;2022-10-19T03:46:29;5.82;;;5.32;;
71810;SDS011;59657;0.000;0.000;2022-10-19T03:48:56;4.57;;;4.18;;
71810;SDS011;59657;0.000;0.000;2022-10-19T03:51:24;5.90;;;4.95;;
71810;SDS011;59657;0.000;0.000;2022-10-19T03:53:51;3.67;;;3.42;;
71810;SDS011;59657;0.000;0.000;2022-10-19T03:56:19;5.00;;;4.57;;
71810;SDS011;59657;0.000;0.000;2022-10-19T03:58:46;4.50;;;4.20;;
71810;SDS011;59657;0.000;0.000;2022-10-19T04:01:15;4.03;;;3.72;;
71810;SDS011;59657;0.000;0.000;2022-10-19T04:03:42;4.47;;;4.15;;
71810;SDS011;59657;0.000;0.000;2022-10-19T04:06:10;5.05;;;4.57;;
71810;SDS011;59657;0.000;0.000;2022-10-19T04:08:38;4.90;;;4.40;;
71810;SDS011;59657;0.000;0.000;2022-10-19T04:11:05;4.63;;;4.25;;
71810;SDS011;59657;0.000;0.000;2022-10-19T04:13:33;4.65;;;4.18;;
71810;SDS011;59657;0.000;0.000;2022-10-19T04:18:25;5.03;;;4.63;;
71810;SDS011;59657;0.000;0.000;2022-10-19T04:23:18;5.05;;;4.65;;
71810;SDS011;59657;0.000;0.000;2022-10-19T04:28:11;5.25;;;4.75;;
71810;SDS011;59657;0.000;0.000;2022-10-19T04:30:37;6.22;;;5.63;;
71810;SDS011;59657;0.000;0.000;2022-10-19T04:35:30;6.47;;;4.85;;
71810;SDS011;59657;0.000;0.000;2022-10-19T04:40:22;5.53;;;5.03;;
71810;SDS011;59657;0.000;0.000;2022-10-19T04:45:15;5.65;;;5.15;;
71810;SDS011;59657;0.000;0.000;2022-10-19T04:47:42;5.53;;;5.07;;
71810;SDS011;59657;0.000;0.000;2022-10-19T04:50:08;6.25;;;5.65;;
71810;SDS011;59657;0.000;0.000;2022-10-19T04:52:35;5.50;;;5.00;;
71810;SDS011;59657;0.000;0.000;2022-10-19T04:57:27;5.32;;;4.82;;
71810;SDS011;59657;0.000;0.000;2022-10-19T05:02:20;5.38;;;4.88;;
71810;SDS011;59657;0.000;0.000;2022-10-19T05:04:46;5.80;;;5.30;;
71810;SDS011;59657;0.000;0.000;2022-10-19T05:07:13;6.13;;;5.35;;
71810;SDS011;59657;0.000;0.000;2022-10-19T05:12:06;6.38;;;5.30;;
71810;SDS011;59657;0.000;0.000;2022-10-19T05:16:58;5.78;;;5.10;;
71810;SDS011;59657;0.000;0.000;2022-10-19T05:21:51;6.47;;;5.03;;
71810;SDS011;59657;0.000;0.000;2022-10-19T05:26:44;5.60;;;5.10;;
71810;SDS011;59657;0.000;0.000;2022-10-19T05:31:36;5.70;;;5.22;;
71810;SDS011;59657;0.000;0.000;2022-10-19T05:36:30;5.50;;;5.00;;
71810;SDS011;59657;0.000;0.000;2022-10-19T05:39:00;4.78;;;4.38;;
71810;SDS011;59657;0.000;0.000;2022-10-19T05:41:26;5.95;;;5.38;;
71810;SDS011;59657;0.000;0.000;2022-10-19T05:43:54;6.13;;;5.30;;
71810;SDS011;59657;0.000;0.000;2022-10-19T05:46:21;6.18;;;5.57;;
71810;SDS011;59657;0.000;0.000;2022-10-19T05:48:48;6.07;;;5.45;;
71810;SDS011;59657;0.000;0.000;2022-10-19T05:53:40;6.05;;;5.45;;
71810;SDS011;59657;0.000;0.000;2022-10-19T05:58:33;5.88;;;5.13;;
71810;SDS011;59657;0.000;0.000;2022-10-19T06:01:00;5.68;;;4.97;;
71810;SDS011;59657;0.000;0.000;2022-10-19T06:03:27;4.93;;;4.10;;
71810;SDS011;59657;0.000;0.000;2022-10-19T06:05:54;6.28;;;5.55;;
71810;SDS011;59657;0.000;0.000;2022-10-19T06:08:21;4.90;;;4.20;;
71810;SDS011;59657;0.000;0.000;2022-10-19T06:10:48;6.38;;;5.32;;
71810;SDS011;59657;0.000;0.000;2022-10-19T06:13:16;5.97;;;5.40;;
71810;SDS011;59657;0.000;0.000;2022-10-19T06:15:43;6.05;;;5.45;;
71810;SDS011;59657;0.000;0.000;2022-10-19T06:20:36;5.78;;;5.20;;
71810;SDS011;59657;0.000;0.000;2022-10-19T06:23:04;5.43;;;4.93;;
71810;SDS011;59657;0.000;0.000;2022-10-19T06:25:31;6.45;;;5.50;;
71810;SDS011;59657;0.000;0.000;2022-10-19T06:27:58;6.53;;;5.75;;
71810;SDS011;59657;0.000;0.000;2022-10-19T06:30:24;4.70;;;4.30;;
71810;SDS011;59657;0.000;0.000;2022-10-19T06:32:51;6.07;;;5.47;;
71810;SDS011;59657;0.000;0.000;2022-10-19T06:35:18;5.97;;;5.38;;
71810;SDS011;59657;0.000;0.000;2022-10-19T06:37:44;7.55;;;5.97;;
71810;SDS011;59657;0.000;0.000;2022-10-19T06:42:37;6.07;;;5.30;;
71810;SDS011;59657;0.000;0.000;2022-10-19T06:47:30;6.50;;;5.75;;
71810;SDS011;59657;0.000;0.000;2022-10-19T06:49:57;5.78;;;5.20;;
71810;SDS011;59657;0.000;0.000;2022-10-19T06:52:23;5.32;;;4.60;;
71810;SDS011;59657;0.000;0.000;2022-10-19T06:57:16;4.72;;;4.30;;
71810;SDS011;59657;0.000;0.000;2022-10-19T06:59:43;6.80;;;5.30;;
71810;SDS011;59657;0.000;0.000;2022-10-19T07:04:35;5.82;;;5.20;;
71810;SDS011;59657;0.000;0.000;2022-10-19T07:09:28;5.80;;;5.18;;
71810;SDS011;59657;0.000;0.000;2022-10-19T07:11:54;5.72;;;5.22;;
71810;SDS011;59657;0.000;0.000;2022-10-19T07:16:53;5.15;;;4.75;;
71810;SDS011;59657;0.000;0.000;2022-10-19T07:19:20;4.40;;;4.00;;
71810;SDS011;59657;0.000;0.000;2022-10-19T07:21:50;5.35;;;4.85;;
71810;SDS011;59657;0.000;0.000;2022-10-19T07:24:16;5.70;;;5.15;;
71810;SDS011;59657;0.000;0.000;2022-10-19T07:26:43;5.70;;;5.20;;
71810;SDS011;59657;0.000;0.000;2022-10-19T07:29:10;5.93;;;5.25;;
71810;SDS011;59657;0.000;0.000;2022-10-19T07:34:03;7.38;;;6.22;;
71810;SDS011;59657;0.000;0.000;2022-10-19T07:36:30;6.00;;;5.40;;
71810;SDS011;59657;0.000;0.000;2022-10-19T07:38:57;6.68;;;6.03;;
71810;SDS011;59657;0.000;0.000;2022-10-19T07:41:24;6.53;;;5.93;;
71810;SDS011;59657;0.000;0.000;2022-10-19T07:43:51;6.18;;;5.40;;
71810;SDS011;59657;0.000;0.000;2022-10-19T07:46:20;6.45;;;5.40;;
71810;SDS011;59657;0.000;0.000;2022-10-19T07:48:47;6.47;;;5.88;;
71810;SDS011;59657;0.000;0.000;2022-10-19T07:51:14;5.00;;;4.60;;
71810;SDS011;59657;0.000;0.000;2022-10-19T07:53:41;6.85;;;5.68;;
71810;SDS011;59657;0.000;0.000;2022-10-19T07:56:09;6.10;;;5.07;;
71810;SDS011;59657;0.000;0.000;2022-10-19T07:58:36;6.45;;;5.85;;
71810;SDS011;59657;0.000;0.000;2022-10-19T08:01:04;6.43;;;5.75;;
71810;SDS011;59657;0.000;0.000;2022-10-19T08:03:32;6.15;;;5.55;;
71810;SDS011;59657;0.000;0.000;2022-10-19T08:05:59;5.80;;;5.30;;
71810;SDS011;59657;0.000;0.000;2022-10-19T08:08:26;6.35;;;5.55;;
71810;SDS011;59657;0.000;0.000;2022-10-19T08:10:53;6.25;;;5.65;;
71810;SDS011;59657;0.000;0.000;2022-10-19T08:13:20;6.88;;;5.78;;
71810;SDS011;59657;0.000;0.000;2022-10-19T08:15:46;6.70;;;5.93;;
71810;SDS011;59657;0.000;0.000;2022-10-19T08:20:41;6.10;;;5.50;;
71810;SDS011;59657;0.000;0.000;2022-10-19T08:23:07;6.35;;;5.65;;
71810;SDS011;59657;0.000;0.000;2022-10-19T08:25:34;6.53;;;5.43;;
71810;SDS011;59657;0.000;0.000;2022-10-19T08:28:01;6.22;;;5.57;;
71810;SDS011;59657;0.000;0.000;2022-10-19T08:30:28;6.30;;;5.70;;
71810;SDS011;59657;0.000;0.000;2022-10-19T08:32:54;5.00;;;4.45;;
71810;SDS011;59657;0.000;0.000;2022-10-19T08:37:47;6.03;;;5.43;;
71810;SDS011;59657;0.000;0.000;2022-10-19T08:42:48;6.00;;;5.43;;
71810;SDS011;59657;0.000;0.000;2022-10-19T08:50:38;5.45;;;4.95;;
71810;SDS011;59657;0.000;0.000;2022-10-19T08:53:06;5.00;;;4.60;;
71810;SDS011;59657;0.000;0.000;2022-10-19T08:55:43;7.18;;;5.40;;
71810;SDS011;59657;0.000;0.000;2022-10-19T08:58:20;5.50;;;4.90;;
71810;SDS011;59657;0.000;0.000;2022-10-19T09:03:34;5.85;;;5.35;;
71810;SDS011;59657;0.000;0.000;2022-10-19T09:06:05;7.03;;;5.30;;
71810;SDS011;59657;0.000;0.000;2022-10-19T09:08:37;5.15;;;4.65;;
71810;SDS011;59657;0.000;0.000;2022-10-19T09:11:04;5.78;;;5.25;;
71810;SDS011;59657;0.000;0.000;2022-10-19T09:16:17;5.88;;;5.38;;
71810;SDS011;59657;0.000;0.000;2022-10-19T09:18:44;5.75;;;5.25;;
71810;SDS011;59657;0.000;0.000;2022-10-19T09:24:01;6.03;;;5.50;;
71810;SDS011;59657;0.000;0.000;2022-10-19T09:26:31;5.43;;;4.93;;
71810;SDS011;59657;0.000;0.000;2022-10-19T09:29:00;5.75;;;5.20;;
71810;SDS011;59657;0.000;0.000;2022-10-19T09:31:30;4.47;;;4.07;;
71810;SDS011;59657;0.000;0.000;2022-10-19T09:34:00;5.88;;;5.32;;
71810;SDS011;59657;0.000;0.000;2022-10-19T09:36:30;6.35;;;5.28;;
71810;SDS011;59657;0.000;0.000;2022-10-19T09:38:59;5.88;;;5.28;;
71810;SDS011;59657;0.000;0.000;2022-10-19T09:43:52;6.07;;;5.45;;
71810;SDS011;59657;0.000;0.000;2022-10-19T09:46:38;4.75;;;4.13;;
71810;SDS011;59657;0.000;0.000;2022-10-19T09:49:05;5.40;;;4.90;;
71810;SDS011;59657;0.000;0.000;2022-10-19T09:51:48;5.53;;;4.97;;
71810;SDS011;59657;0.000;0.000;2022-10-19T09:54:25;5.57;;;5.07;;
71810;SDS011;59657;0.000;0.000;2022-10-19T09:56:53;5.70;;;5.18;;
71810;SDS011;59657;0.000;0.000;2022-10-19T09:59:20;5.78;;;5.20;;
71810;SDS011;59657;0.000;0.000;2022-10-19T10:01:48;5.82;;;5.00;;
71810;SDS011;59657;0.000;0.000;2022-10-19T10:04:24;5.70;;;4.75;;
71810;SDS011;59657;0.000;0.000;2022-10-19T10:09:17;5.20;;;4.72;;
71810;SDS011;59657;0.000;0.000;2022-10-19T10:11:46;4.88;;;4.13;;
71810;SDS011;59657;0.000;0.000;2022-10-19T10:16:56;5.20;;;4.70;;
71810;SDS011;59657;0.000;0.000;2022-10-19T10:19:28;5.63;;;4.68;;
71810;SDS011;59657;0.000;0.000;2022-10-19T10:21:55;5.35;;;4.85;;
71810;SDS011;59657;0.000;0.000;2022-10-19T10:24:23;5.22;;;4.72;;
71810;SDS011;59657;0.000;0.000;2022-10-19T10:26:51;5.00;;;4.50;;
71810;SDS011;59657;0.000;0.000;2022-10-19T10:29:19;5.40;;;4.90;;
71810;SDS011;59657;0.000;0.000;2022-10-19T10:31:47;5.38;;;4.78;;
71810;SDS011;59657;0.000;0.000;2022-10-19T10:34:17;4.88;;;4.50;;
71810;SDS011;59657;0.000;0.000;2022-10-19T10:36:47;5.07;;;4.68;;
71810;SDS011;59657;0.000;0.000;2022-10-19T10:39:14;5.25;;;4.80;;
71810;SDS011;59657;0.000;0.000;2022-10-19T10:41:42;4.68;;;4.30;;
71810;SDS011;59657;0.000;0.000;2022-10-19T10:44:25;5.38;;;4.88;;
71810;SDS011;59657;0.000;0.000;2022-10-19T10:46:57;4.93;;;4.53;;
71810;SDS011;59657;0.000;0.000;2022-10-19T10:49:26;4.95;;;4.47;;
71810;SDS011;59657;0.000;0.000;2022-10-19T10:51:54;4.80;;;4.22;;
71810;SDS011;59657;0.000;0.000;2022-10-19T10:54:25;5.32;;;4.82;;
71810;SDS011;59657;0.000;0.000;2022-10-19T10:56:56;5.10;;;4.60;;
71810;SDS011;59657;0.000;0.000;2022-10-19T10:59:25;5.97;;;5.13;;
71810;SDS011;59657;0.000;0.000;2022-10-19T11:02:02;4.18;;;3.78;;
71810;SDS011;59657;0.000;0.000;2022-10-19T11:04:31;5.13;;;4.45;;
71810;SDS011;59657;0.000;0.000;2022-10-19T11:07:00;5.20;;;4.80;;
71810;SDS011;59657;0.000;0.000;2022-10-19T11:09:28;5.45;;;4.95;;
71810;SDS011;59657;0.000;0.000;2022-10-19T11:11:56;5.45;;;5.03;;
71810;SDS011;59657;0.000;0.000;2022-10-19T11:14:29;5.03;;;4.63;;
71810;SDS011;59657;0.000;0.000;2022-10-19T11:16:57;4.82;;;4.43;;
71810;SDS011;59657;0.000;0.000;2022-10-19T11:19:32;5.07;;;4.63;;
71810;SDS011;59657;0.000;0.000;2022-10-19T11:24:48;4.95;;;4.55;;
71810;SDS011;59657;0.000;0.000;2022-10-19T11:27:23;5.07;;;4.10;;
71810;SDS011;59657;0.000;0.000;2022-10-19T11:30:02;4.78;;;4.38;;
71810;SDS011;59657;0.000;0.000;2022-10-19T11:33:20;4.78;;;4.38;;
71810;SDS011;59657;0.000;0.000;2022-10-19T11:35:19;4.93;;;4.53;;
71810;SDS011;59657;0.000;0.000;2022-10-19T11:37:55;4.00;;;3.70;;
71810;SDS011;59657;0.000;0.000;2022-10-19T11:40:32;4.93;;;4.53;;
71810;SDS011;59657;0.000;0.000;2022-10-19T11:43:01;4.72;;;4.40;;
71810;SDS011;59657;0.000;0.000;2022-10-19T11:51:05;5.43;;;4.93;;
71810;SDS011;59657;0.000;0.000;2022-10-19T11:53:38;5.07;;;4.60;;
71810;SDS011;59657;0.000;0.000;2022-10-19T11:56:08;4.95;;;4.28;;
71810;SDS011;59657;0.000;0.000;2022-10-19T12:01:19;4.78;;;4.38;;
71810;SDS011;59657;0.000;0.000;2022-10-19T12:03:56;5.00;;;4.50;;
71810;SDS011;59657;0.000;0.000;2022-10-19T12:06:32;5.45;;;4.95;;
71810;SDS011;59657;0.000;0.000;2022-10-19T12:09:20;5.82;;;5.03;;
71810;SDS011;59657;0.000;0.000;2022-10-19T12:12:01;5.75;;;5.25;;
71810;SDS011;59657;0.000;0.000;2022-10-19T12:14:34;5.03;;;4.38;;
71810;SDS011;59657;0.000;0.000;2022-10-19T12:17:07;5.18;;;4.68;;
71810;SDS011;59657;0.000;0.000;2022-10-19T12:19:39;5.47;;;4.97;;
71810;SDS011;59657;0.000;0.000;2022-10-19T12:22:09;5.20;;;4.70;;
71810;SDS011;59657;0.000;0.000;2022-10-19T12:24:37;5.95;;;5.35;;
71810;SDS011;59657;0.000;0.000;2022-10-19T12:29:32;5.82;;;5.22;;
71810;SDS011;59657;0.000;0.000;2022-10-19T12:31:59;4.60;;;4.10;;
71810;SDS011;59657;0.000;0.000;2022-10-19T12:34:33;5.35;;;4.85;;
71810;SDS011;59657;0.000;0.000;2022-10-19T12:37:11;5.55;;;5.05;;
71810;SDS011;59657;0.000;0.000;2022-10-19T12:39:42;5.50;;;5.03;;
71810;SDS011;59657;0.000;0.000;2022-10-19T12:42:18;5.72;;;5.20;;
71810;SDS011;59657;0.000;0.000;2022-10-19T12:45:01;5.65;;;5.03;;
71810;SDS011;59657;0.000;0.000;2022-10-19T12:47:32;6.20;;;5.57;;
71810;SDS011;59657;0.000;0.000;2022-10-19T12:49:59;5.90;;;5.40;;
71810;SDS011;59657;0.000;0.000;2022-10-19T12:57:46;5.90;;;5.40;;
71810;SDS011;59657;0.000;0.000;2022-10-19T13:00:21;6.13;;;5.53;;
71810;SDS011;59657;0.000;0.000;2022-10-19T13:02:55;6.40;;;5.80;;
71810;SDS011;59657;0.000;0.000;2022-10-19T13:05:23;6.57;;;5.97;;
71810;SDS011;59657;0.000;0.000;2022-10-19T13:07:51;6.68;;;6.00;;
71810;SDS011;59657;0.000;0.000;2022-10-19T13:12:44;6.47;;;5.55;;
71810;SDS011;59657;0.000;0.000;2022-10-19T13:17:55;6.03;;;4.82;;
71810;SDS011;59657;0.000;0.000;2022-10-19T13:28:35;6.32;;;5.72;;
71810;SDS011;59657;0.000;0.000;2022-10-19T13:31:02;5.90;;;5.40;;
71810;SDS011;59657;0.000;0.000;2022-10-19T13:33:39;8.82;;;6.63;;
71810;SDS011;59657;0.000;0.000;2022-10-19T13:36:07;6.97;;;6.13;;
71810;SDS011;59657;0.000;0.000;2022-10-19T13:38:42;5.97;;;5.47;;
71810;SDS011;59657;0.000;0.000;2022-10-19T13:41:17;6.18;;;5.57;;
71810;SDS011;59657;0.000;0.000;2022-10-19T13:43:56;6.70;;;6.00;;
71810;SDS011;59657;0.000;0.000;2022-10-19T13:46:36;6.32;;;5.68;;
71810;SDS011;59657;0.000;0.000;2022-10-19T14:00:09;6.90;;;6.07;;
71810;SDS011;59657;0.000;0.000;2022-10-19T14:02:49;7.25;;;6.57;;
71810;SDS011;59657;0.000;0.000;2022-10-19T14:05:22;7.38;;;6.68;;
71810;SDS011;59657;0.000;0.000;2022-10-19T14:10:36;6.72;;;6.07;;
71810;SDS011;59657;0.000;0.000;2022-10-19T14:13:04;6.72;;;6.05;;
71810;SDS011;59657;0.000;0.000;2022-10-19T14:15:32;7.63;;;6.32;;
71810;SDS011;59657;0.000;0.000;2022-10-19T14:17:59;6.03;;;5.43;;
71810;SDS011;59657;0.000;0.000;2022-10-19T14:20:31;7.15;;;6.25;;
71810;SDS011;59657;0.000;0.000;2022-10-19T14:22:57;6.30;;;5.70;;
71810;SDS011;59657;0.000;0.000;2022-10-19T14:25:48;5.97;;;5.38;;
71810;SDS011;59657;0.000;0.000;2022-10-19T14:28:14;7.28;;;6.57;;
71810;SDS011;59657;0.000;0.000;2022-10-19T14:30:41;5.57;;;5.07;;
71810;SDS011;59657;0.000;0.000;2022-10-19T14:35:38;5.95;;;5.45;;
71810;SDS011;59657;0.000;0.000;2022-10-19T14:38:05;6.72;;;6.13;;
71810;SDS011;59657;0.000;0.000;2022-10-19T14:40:33;6.57;;;5.85;;
71810;SDS011;59657;0.000;0.000;2022-10-19T14:43:12;7.30;;;6.00;;
71810;SDS011;59657;0.000;0.000;2022-10-19T14:45:43;5.93;;;5.32;;
71810;SDS011;59657;0.000;0.000;2022-10-19T14:48:14;6.38;;;5.78;;
71810;SDS011;59657;0.000;0.000;2022-10-19T14:50:44;6.57;;;5.97;;
71810;SDS011;59657;0.000;0.000;2022-10-19T14:53:21;6.35;;;5.75;;
71810;SDS011;59657;0.000;0.000;2022-10-19T14:55:50;7.03;;;6.32;;
71810;SDS011;59657;0.000;0.000;2022-10-19T14:58:17;7.88;;;6.47;;
71810;SDS011;59657;0.000;0.000;2022-10-19T15:00:46;7.65;;;6.85;;
71810;SDS011;59657;0.000;0.000;2022-10-19T15:03:18;7.30;;;6.53;;
71810;SDS011;59657;0.000;0.000;2022-10-19T15:05:47;8.48;;;6.82;;
71810;SDS011;59657;0.000;0.000;2022-10-19T15:08:17;7.55;;;6.78;;
71810;SDS011;59657;0.000;0.000;2022-10-19T15:10:45;9.02;;;7.43;;
71810;SDS011;59657;0.000;0.000;2022-10-19T15:13:18;7.07;;;6.35;;
71810;SDS011;59657;0.000;0.000;2022-10-19T15:15:48;6.35;;;5.75;;
71810;SDS011;59657;0.000;0.000;2022-10-19T15:18:15;7.22;;;6.15;;
71810;SDS011;59657;0.000;0.000;2022-10-19T15:20:43;7.43;;;6.00;;
71810;SDS011;59657;0.000;0.000;2022-10-19T15:25:59;6.07;;;5.47;;
71810;SDS011;59657;0.000;0.000;2022-10-19T15:28:34;6.78;;;6.13;;
71810;SDS011;59657;0.000;0.000;2022-10-19T15:33:49;7.68;;;6.80;;
71810;SDS011;59657;0.000;0.000;2022-10-19T15:36:16;7.47;;;6.47;;
71810;SDS011;59657;0.000;0.000;2022-10-19T15:38:45;6.25;;;4.90;;
71810;SDS011;59657;0.000;0.000;2022-10-19T15:41:16;6.30;;;5.70;;
71810;SDS011;59657;0.000;0.000;2022-10-19T15:43:51;7.03;;;6.28;;
71810;SDS011;59657;0.000;0.000;2022-10-19T15:48:57;7.68;;;6.88;;
71810;SDS011;59657;0.000;0.000;2022-10-19T15:51:33;8.90;;;7.25;;
71810;SDS011;59657;0.000;0.000;2022-10-19T15:54:01;9.52;;;7.65;;
71810;SDS011;59657;0.000;0.000;2022-10-19T15:56:29;8.57;;;7.55;;
71810;SDS011;59657;0.000;0.000;2022-10-19T15:58:56;9.73;;;8.45;;
71810;SDS011;59657;0.000;0.000;2022-10-19T16:01:24;8.02;;;7.22;;
71810;SDS011;59657;0.000;0.000;2022-10-19T16:03:51;8.60;;;7.43;;
71810;SDS011;59657;0.000;0.000;2022-10-19T16:06:18;9.15;;;8.18;;
71810;SDS011;59657;0.000;0.000;2022-10-19T16:08:45;9.60;;;8.05;;
71810;SDS011;59657;0.000;0.000;2022-10-19T16:13:38;7.82;;;6.65;;
71810;SDS011;59657;0.000;0.000;2022-10-19T16:18:30;7.22;;;6.53;;
71810;SDS011;59657;0.000;0.000;2022-10-19T16:23:24;7.07;;;6.38;;
71810;SDS011;59657;0.000;0.000;2022-10-19T16:25:51;8.20;;;7.40;;
71810;SDS011;59657;0.000;0.000;2022-10-19T16:30:44;8.13;;;6.32;;
71810;SDS011;59657;0.000;0.000;2022-10-19T16:33:10;9.60;;;6.78;;
71810;SDS011;59657;0.000;0.000;2022-10-19T16:38:05;7.63;;;6.75;;
71810;SDS011;59657;0.000;0.000;2022-10-19T16:42:57;7.57;;;6.13;;
71810;SDS011;59657;0.000;0.000;2022-10-19T16:45:25;5.90;;;5.40;;
71810;SDS011;59657;0.000;0.000;2022-10-19T16:47:54;6.80;;;6.10;;
71810;SDS011;59657;0.000;0.000;2022-10-19T16:50:22;7.07;;;6.38;;
71810;SDS011;59657;0.000;0.000;2022-10-19T16:53:06;5.50;;;4.93;;
71810;SDS011;59657;0.000;0.000;2022-10-19T16:55:36;6.43;;;5.82;;
71810;SDS011;59657;0.000;0.000;2022-10-19T16:58:04;5.82;;;5.32;;
71810;SDS011;59657;0.000;0.000;2022-10-19T17:00:30;6.25;;;5.65;;
71810;SDS011;59657;0.000;0.000;2022-10-19T17:05:23;7.10;;;5.65;;
71810;SDS011;59657;0.000;0.000;2022-10-19T17:07:50;6.95;;;5.80;;
71810;SDS011;59657;0.000;0.000;2022-10-19T17:12:42;5.40;;;4.90;;
71810;SDS011;59657;0.000;0.000;2022-10-19T17:17:36;5.05;;;4.65;;
71810;SDS011;59657;0.000;0.000;2022-10-19T17:20:06;6.50;;;5.90;;
71810;SDS011;59657;0.000;0.000;2022-10-19T17:22:35;4.93;;;4.43;;
71810;SDS011;59657;0.000;0.000;2022-10-19T17:27:27;5.40;;;4.90;;
71810;SDS011;59657;0.000;0.000;2022-10-19T17:32:20;8.45;;;7.50;;
71810;SDS011;59657;0.000;0.000;2022-10-19T17:37:13;5.82;;;5.28;;
71810;SDS011;59657;0.000;0.000;2022-10-19T17:39:39;7.45;;;6.75;;
71810;SDS011;59657;0.000;0.000;2022-10-19T17:44:32;8.10;;;7.30;;
71810;SDS011;59657;0.000;0.000;2022-10-19T17:49:26;10.00;;;8.38;;
71810;SDS011;59657;0.000;0.000;2022-10-19T17:51:53;8.57;;;7.68;;
71810;SDS011;59657;0.000;0.000;2022-10-19T17:56:46;5.50;;;5.00;;
71810;SDS011;59657;0.000;0.000;2022-10-19T17:59:13;8.77;;;7.70;;
71810;SDS011;59657;0.000;0.000;2022-10-19T18:01:40;8.90;;;8.00;;
71810;SDS011;59657;0.000;0.000;2022-10-19T18:04:06;6.78;;;6.13;;
71810;SDS011;59657;0.000;0.000;2022-10-19T18:06:34;7.45;;;6.35;;
71810;SDS011;59657;0.000;0.000;2022-10-19T18:09:02;9.25;;;8.13;;
71810;SDS011;59657;0.000;0.000;2022-10-19T18:11:30;9.02;;;8.13;;
71810;SDS011;59657;0.000;0.000;2022-10-19T18:14:00;9.55;;;8.38;;
71810;SDS011;59657;0.000;0.000;2022-10-19T18:16:28;10.13;;;9.10;;
71810;SDS011;59657;0.000;0.000;2022-10-19T18:18:55;10.93;;;8.98;;
71810;SDS011;59657;0.000;0.000;2022-10-19T18:21:24;9.75;;;8.75;;
71810;SDS011;59657;0.000;0.000;2022-10-19T18:23:52;10.77;;;8.88;;
71810;SDS011;59657;0.000;0.000;2022-10-19T18:26:20;9.90;;;8.90;;
71810;SDS011;59657;0.000;0.000;2022-10-19T18:28:48;11.13;;;9.75;;
71810;SDS011;59657;0.000;0.000;2022-10-19T18:31:18;12.57;;;9.20;;
71810;SDS011;59657;0.000;0.000;2022-10-19T18:33:46;9.98;;;8.98;;
71810;SDS011;59657;0.000;0.000;2022-10-19T18:36:13;11.55;;;9.30;;
71810;SDS011;59657;0.000;0.000;2022-10-19T18:38:39;10.25;;;8.00;;
71810;SDS011;59657;0.000;0.000;2022-10-19T18:43:32;10.82;;;8.65;;
71810;SDS011;59657;0.000;0.000;2022-10-19T18:48:26;10.10;;;8.50;;
71810;SDS011;59657;0.000;0.000;2022-10-19T18:50:53;12.20;;;10.13;;
71810;SDS011;59657;0.000;0.000;2022-10-19T18:53:20;10.63;;;9.45;;
71810;SDS011;59657;0.000;0.000;2022-10-19T18:56:07;10.13;;;9.05;;
71810;SDS011;59657;0.000;0.000;2022-10-19T18:58:33;10.75;;;9.40;;
71810;SDS011;59657;0.000;0.000;2022-10-19T19:01:08;10.52;;;9.43;;
71810;SDS011;59657;0.000;0.000;2022-10-19T19:03:36;10.70;;;8.82;;
71810;SDS011;59657;0.000;0.000;2022-10-19T19:06:04;12.32;;;10.38;;
71810;SDS011;59657;0.000;0.000;2022-10-19T19:08:31;8.32;;;7.38;;
71810;SDS011;59657;0.000;0.000;2022-10-19T19:11:07;10.00;;;9.00;;
71810;SDS011;59657;0.000;0.000;2022-10-19T19:13:34;9.50;;;8.50;;
71810;SDS011;59657;0.000;0.000;2022-10-19T19:18:27;10.88;;;9.10;;
71810;SDS011;59657;0.000;0.000;2022-10-19T19:20:54;9.05;;;8.10;;
71810;SDS011;59657;0.000;0.000;2022-10-19T19:25:47;7.82;;;7.03;;